New Liberty, Iowa
Current Conditions -  °F | °C
As of 2:52 PM on Friday 28 Nov 2014 (Local Time) from KDVN Reporting Station
Clear Clear  
Wind Chill: 27°   Ceiling: Unl
Heat Index: 34°   Visibility: 10mi
Dew Point: 25°   Wind: 8mph
Humidity: 70%   Direction: 160°SSE
Pressure: 29.92"   Gusts: NA
Location:  41.72°N, 90.88°W
Report Text: KDVN 282052Z AUTO 16007KT 10SM CLR 01/M04 A2992 RMK AO2 SLP141 T00111039 FZRANO
Loading
Personal Weather Stations






























Interactive Weather Map New forecast layout! Learn more

10-Day Weather Forecast

Advertisements
Track Severe Weather on mobile